createdAt,value
2022-11-28T00:01:24.656Z,4.93
2022-11-28T00:03:51.756Z,6.23
2022-11-28T00:06:19.122Z,6.33
2022-11-28T00:08:46.418Z,3.93
2022-11-28T00:11:15.741Z,5.30
2022-11-28T00:13:42.944Z,4.67
2022-11-28T00:16:16.156Z,4.43
2022-11-28T00:18:43.518Z,4.03
2022-11-28T00:21:12.694Z,3.70
2022-11-28T00:23:40.114Z,4.53
2022-11-28T00:26:14.037Z,5.60
2022-11-28T00:28:41.174Z,3.70
2022-11-28T00:31:13.872Z,5.63
2022-11-28T00:33:41.347Z,5.10
2022-11-28T00:36:08.528Z,7.60
2022-11-28T00:38:35.543Z,5.40
2022-11-28T00:41:05.472Z,6.00
2022-11-28T00:43:33.101Z,5.20
2022-11-28T00:46:00.058Z,4.63
2022-11-28T00:48:27.528Z,5.23
2022-11-28T00:50:55.566Z,5.20
2022-11-28T00:53:22.381Z,5.40
2022-11-28T00:55:49.136Z,5.13
2022-11-28T00:58:15.877Z,5.83
2022-11-28T01:00:42.720Z,7.53
2022-11-28T01:03:09.614Z,5.23
2022-11-28T01:05:43.713Z,4.07
2022-11-28T01:08:10.903Z,4.57
2022-11-28T01:10:42.504Z,4.37
2022-11-28T01:13:10.685Z,4.77
2022-11-28T01:15:40.910Z,5.83
2022-11-28T01:18:07.880Z,4.10
2022-11-28T01:20:34.974Z,5.17
2022-11-28T01:23:01.785Z,4.70
2022-11-28T01:25:28.652Z,5.00
2022-11-28T01:27:55.478Z,6.27
2022-11-28T01:30:22.216Z,4.23
2022-11-28T01:32:48.991Z,5.37
2022-11-28T01:35:15.858Z,4.73
2022-11-28T01:37:42.631Z,5.33
2022-11-28T01:40:11.751Z,7.67
2022-11-28T01:42:38.836Z,4.97
2022-11-28T01:45:13.460Z,5.80
2022-11-28T01:47:40.924Z,6.53
2022-11-28T01:50:08.476Z,5.37
2022-11-28T01:52:38.406Z,5.37
2022-11-28T01:55:06.263Z,4.67
2022-11-28T01:57:33.146Z,4.70
2022-11-28T02:00:03.186Z,6.60
2022-11-28T02:02:36.795Z,4.97
2022-11-28T02:05:04.269Z,5.43
2022-11-28T02:07:31.205Z,5.23
2022-11-28T02:09:58.099Z,4.67
2022-11-28T02:12:45.715Z,4.37
2022-11-28T02:15:27.523Z,4.53
2022-11-28T02:18:03.245Z,5.40
2022-11-28T02:21:08.014Z,5.97
2022-11-28T02:23:43.424Z,6.07
2022-11-28T02:26:15.995Z,4.93
2022-11-28T02:28:58.005Z,5.37
2022-11-28T02:31:46.063Z,6.40
2022-11-28T02:34:26.099Z,6.80
2022-11-28T02:37:06.376Z,6.20
2022-11-28T02:40:14.413Z,5.77
2022-11-28T02:43:14.130Z,5.47
2022-11-28T02:45:53.629Z,6.70
2022-11-28T02:48:44.185Z,7.00
2022-11-28T02:51:24.816Z,6.40
2022-11-28T02:53:53.280Z,7.37
2022-11-28T02:56:20.028Z,6.30
2022-11-28T02:58:47.139Z,5.27
2022-11-28T03:01:30.820Z,5.87
2022-11-28T03:04:12.788Z,6.83
2022-11-28T03:07:09.688Z,5.47
2022-11-28T03:09:56.893Z,6.03
2022-11-28T03:12:46.724Z,5.90
2022-11-28T03:15:16.833Z,5.43
2022-11-28T03:17:55.413Z,5.27
2022-11-28T03:20:49.033Z,5.87
2022-11-28T03:23:42.366Z,6.50
2022-11-28T03:26:36.742Z,5.80
2022-11-28T03:29:13.664Z,6.17
2022-11-28T03:31:45.545Z,5.80
2022-11-28T03:34:16.778Z,5.87
2022-11-28T03:36:54.089Z,6.93
2022-11-28T03:39:28.052Z,5.27
2022-11-28T03:41:59.685Z,7.07
2022-11-28T03:44:35.627Z,6.30
2022-11-28T03:47:05.093Z,6.30
2022-11-28T03:49:36.874Z,8.27
2022-11-28T03:52:11.469Z,6.73
2022-11-28T03:55:03.900Z,5.87
2022-11-28T03:57:39.061Z,7.77
2022-11-28T04:00:13.282Z,7.17
2022-11-28T04:03:14.509Z,7.67
2022-11-28T04:05:52.377Z,7.10
2022-11-28T04:08:25.998Z,7.13
2022-11-28T04:10:58.530Z,8.03
2022-11-28T04:13:32.655Z,7.23
2022-11-28T04:16:09.390Z,6.53
2022-11-28T04:19:01.566Z,7.23
2022-11-28T04:21:49.910Z,6.23
2022-11-28T04:24:23.890Z,8.27
2022-11-28T04:27:04.253Z,6.73
2022-11-28T04:29:54.239Z,7.00
2022-11-28T04:32:23.508Z,6.77
2022-11-28T04:34:55.000Z,7.43
2022-11-28T04:37:25.065Z,6.30
2022-11-28T04:39:53.877Z,6.53
2022-11-28T04:42:26.702Z,5.63
2022-11-28T04:45:08.864Z,7.87
2022-11-28T04:47:35.812Z,6.37
2022-11-28T04:50:03.053Z,7.37
2022-11-28T04:53:10.064Z,6.40
2022-11-28T04:55:46.380Z,6.40
2022-11-28T04:58:29.366Z,6.03
2022-11-28T05:00:58.977Z,5.87
2022-11-28T05:03:29.430Z,9.13
2022-11-28T05:05:56.249Z,5.73
2022-11-28T05:08:23.135Z,7.33
2022-11-28T05:10:50.245Z,5.40
2022-11-28T05:13:17.950Z,6.13
2022-11-28T05:15:44.898Z,8.13
2022-11-28T05:18:11.840Z,7.23
2022-11-28T05:20:39.143Z,5.93
2022-11-28T05:23:06.645Z,6.00
2022-11-28T05:25:33.808Z,7.47
2022-11-28T05:28:00.752Z,6.63
2022-11-28T05:30:27.593Z,6.17
2022-11-28T05:32:54.471Z,6.43
2022-11-28T05:35:21.289Z,5.07
2022-11-28T05:37:48.065Z,5.60
2022-11-28T05:40:14.925Z,9.87
2022-11-28T05:42:41.710Z,7.20
2022-11-28T05:45:09.372Z,7.33
2022-11-28T05:47:36.467Z,8.43
2022-11-28T05:50:04.175Z,8.13
2022-11-28T05:52:32.283Z,6.80
2022-11-28T05:55:00.285Z,7.23
2022-11-28T05:57:29.895Z,6.33
2022-11-28T05:59:57.439Z,7.17
2022-11-28T06:02:24.281Z,6.70
2022-11-28T06:04:51.374Z,6.77
2022-11-28T06:07:19.841Z,7.93
2022-11-28T06:09:46.808Z,7.47
2022-11-28T06:12:13.815Z,7.57
2022-11-28T06:14:40.705Z,8.33
2022-11-28T06:17:07.505Z,5.63
2022-11-28T06:19:34.325Z,6.63
2022-11-28T06:22:01.109Z,5.77
2022-11-28T06:24:27.955Z,6.03
2022-11-28T06:26:55.270Z,6.33
2022-11-28T06:29:22.617Z,5.97
2022-11-28T06:31:49.567Z,6.73
2022-11-28T06:34:16.635Z,7.10
2022-11-28T06:36:44.652Z,7.33
2022-11-28T06:39:15.329Z,7.00
2022-11-28T06:41:43.192Z,7.23
2022-11-28T06:44:15.277Z,6.80
2022-11-28T06:46:42.346Z,8.27
2022-11-28T06:49:12.941Z,7.27
2022-11-28T06:51:43.060Z,9.33
2022-11-28T06:54:09.803Z,9.47
2022-11-28T06:56:36.710Z,8.83
2022-11-28T06:59:03.917Z,7.13
2022-11-28T07:01:32.466Z,7.07
2022-11-28T07:03:59.281Z,9.23
2022-11-28T07:06:27.204Z,8.87
2022-11-28T07:08:55.379Z,8.57
2022-11-28T07:11:28.047Z,9.30
2022-11-28T07:13:56.000Z,9.07
2022-11-28T07:16:28.802Z,10.83
2022-11-28T07:18:56.880Z,8.27
2022-11-28T07:21:24.085Z,9.33
2022-11-28T07:23:51.387Z,10.50
2022-11-28T07:26:21.617Z,10.57
2022-11-28T07:28:50.327Z,9.97
2022-11-28T07:31:22.903Z,10.53
2022-11-28T07:33:51.247Z,10.03
2022-11-28T07:36:22.749Z,14.07
2022-11-28T07:38:55.390Z,10.87
2022-11-28T07:41:26.538Z,12.50
2022-11-28T07:43:56.422Z,15.70
2022-11-28T07:46:24.587Z,12.07
2022-11-28T07:48:52.317Z,9.93
2022-11-28T07:51:22.804Z,9.63
2022-11-28T07:53:49.864Z,10.73
2022-11-28T07:56:19.640Z,10.37
2022-11-28T07:58:47.751Z,11.80
2022-11-28T08:01:20.591Z,9.43
2022-11-28T08:03:48.097Z,9.47
2022-11-28T08:06:17.067Z,10.40
2022-11-28T08:08:47.038Z,11.47
2022-11-28T08:11:15.468Z,12.83
2022-11-28T08:13:43.223Z,11.97
2022-11-28T08:16:14.658Z,12.20
2022-11-28T08:18:42.055Z,10.63
2022-11-28T08:21:14.801Z,10.73
2022-11-28T08:23:42.272Z,10.30
2022-11-28T08:26:11.241Z,11.40
2022-11-28T08:28:38.081Z,11.73
2022-11-28T08:31:23.588Z,11.87
2022-11-28T08:33:52.325Z,14.30
2022-11-28T08:36:20.232Z,12.00
2022-11-28T08:39:03.316Z,9.97
2022-11-28T08:41:35.189Z,10.63
2022-11-28T08:44:01.993Z,11.17
2022-11-28T08:46:28.991Z,11.77
2022-11-28T08:48:55.955Z,11.13
2022-11-28T08:51:24.212Z,9.47
2022-11-28T08:53:57.873Z,9.70
2022-11-28T08:56:26.551Z,9.03
2022-11-28T08:58:53.474Z,9.57
2022-11-28T09:01:25.420Z,8.70
2022-11-28T09:03:53.262Z,11.13
2022-11-28T09:06:21.205Z,8.90
2022-11-28T09:08:49.243Z,8.40
2022-11-28T09:11:18.297Z,11.63
2022-11-28T09:13:45.884Z,10.20
2022-11-28T09:16:13.220Z,8.77
2022-11-28T09:18:40.144Z,10.20
2022-11-28T09:21:11.960Z,9.47
2022-11-28T09:23:41.107Z,10.27
2022-11-28T09:26:09.749Z,10.87
2022-11-28T09:28:37.015Z,11.30
2022-11-28T09:31:06.231Z,10.90
2022-11-28T09:33:33.347Z,12.97
2022-11-28T09:36:08.414Z,10.40
2022-11-28T09:38:35.809Z,9.70
2022-11-28T09:41:03.635Z,10.20
2022-11-28T09:43:38.196Z,13.50
2022-11-28T09:46:11.348Z,10.43
2022-11-28T09:48:44.456Z,8.97
2022-11-28T09:51:31.468Z,10.83
2022-11-28T09:54:11.173Z,8.97
2022-11-28T09:56:38.585Z,10.97
2022-11-28T09:59:19.200Z,14.03
2022-11-28T10:01:58.034Z,11.47
2022-11-28T10:04:24.961Z,10.10
2022-11-28T10:07:19.536Z,10.20
2022-11-28T10:09:52.738Z,10.63
2022-11-28T10:12:51.083Z,10.67
2022-11-28T10:15:44.692Z,13.80
2022-11-28T10:18:36.558Z,11.80
2022-11-28T10:21:14.606Z,11.67
2022-11-28T10:23:46.845Z,12.00
2022-11-28T10:26:23.976Z,14.17
2022-11-28T10:28:53.858Z,12.23
2022-11-28T10:31:41.779Z,10.67
2022-11-28T10:34:17.652Z,10.37
2022-11-28T10:37:12.029Z,12.43
2022-11-28T10:39:44.585Z,9.93
2022-11-28T10:42:36.771Z,11.17
2022-11-28T10:45:39.932Z,10.37
2022-11-28T10:51:17.465Z,12.50
2022-11-28T10:54:02.365Z,10.40
2022-11-28T10:56:40.623Z,9.60
2022-11-28T10:59:21.295Z,11.07
2022-11-28T11:01:50.948Z,11.20
2022-11-28T11:04:21.665Z,11.17
2022-11-28T11:07:29.882Z,11.57
2022-11-28T11:10:25.486Z,9.50
2022-11-28T11:12:53.637Z,10.17
2022-11-28T11:15:31.155Z,13.47
2022-11-28T11:18:02.757Z,12.67
2022-11-28T11:20:36.912Z,8.77
2022-11-28T11:23:22.802Z,12.93
2022-11-28T11:25:56.650Z,10.03
2022-11-28T11:28:43.293Z,11.30
2022-11-28T11:31:42.832Z,9.37
2022-11-28T11:34:18.792Z,10.93
2022-11-28T11:36:46.283Z,9.40
2022-11-28T11:39:13.301Z,9.77
2022-11-28T11:41:42.885Z,10.43
2022-11-28T11:44:15.846Z,9.77
2022-11-28T11:47:02.823Z,9.33
2022-11-28T11:49:49.891Z,10.73
2022-11-28T11:52:25.457Z,11.17
2022-11-28T11:54:58.188Z,11.10
2022-11-28T11:57:34.224Z,9.97
2022-11-28T12:00:20.903Z,10.43
2022-11-28T12:02:51.972Z,10.10
2022-11-28T12:05:52.344Z,9.73
2022-11-28T12:08:22.586Z,10.83
2022-11-28T12:10:56.462Z,13.13
2022-11-28T12:13:24.765Z,10.73
2022-11-28T12:16:03.978Z,13.57
2022-11-28T12:19:04.728Z,10.57
2022-11-28T12:22:03.090Z,11.73
2022-11-28T12:24:33.084Z,10.47
2022-11-28T12:27:00.118Z,11.80
2022-11-28T12:29:54.685Z,10.07
2022-11-28T12:32:56.947Z,11.17
2022-11-28T12:35:47.301Z,10.90
2022-11-28T12:38:49.265Z,9.93
2022-11-28T12:41:37.512Z,12.70
2022-11-28T12:44:13.227Z,11.30
2022-11-28T12:46:54.967Z,11.77
2022-11-28T12:49:40.283Z,11.37
2022-11-28T12:52:24.718Z,11.40
2022-11-28T12:55:11.832Z,12.57
2022-11-28T12:57:55.249Z,13.33
2022-11-28T13:00:26.296Z,12.33
2022-11-28T13:03:34.538Z,13.83
2022-11-28T13:06:13.092Z,10.63
2022-11-28T13:09:03.055Z,11.20
2022-11-28T13:11:54.291Z,10.83
2022-11-28T13:14:33.716Z,11.97
2022-11-28T13:17:35.975Z,11.43
2022-11-28T13:20:30.699Z,11.20
2022-11-28T13:23:17.368Z,14.70
2022-11-28T13:25:57.154Z,12.90
2022-11-28T13:28:24.067Z,15.03
2022-11-28T13:30:55.363Z,13.90
2022-11-28T13:33:52.873Z,11.53
2022-11-28T13:39:23.290Z,12.93
2022-11-28T13:42:28.435Z,11.90
2022-11-28T13:45:23.778Z,12.60
2022-11-28T13:47:53.519Z,12.83
2022-11-28T13:50:23.468Z,12.03
2022-11-28T13:53:01.943Z,12.83
2022-11-28T13:55:49.936Z,15.00
2022-11-28T13:58:28.431Z,14.73
2022-11-28T14:01:14.450Z,12.77
2022-11-28T14:04:02.542Z,15.53
2022-11-28T14:06:44.754Z,13.87
2022-11-28T14:09:11.793Z,13.93
2022-11-28T14:12:02.652Z,12.97
2022-11-28T14:14:51.636Z,12.27
2022-11-28T14:17:33.009Z,13.23
2022-11-28T14:20:09.937Z,11.97
2022-11-28T14:23:08.344Z,15.33
2022-11-28T14:25:43.321Z,13.50
2022-11-28T14:28:38.278Z,14.60
2022-11-28T14:31:11.390Z,14.03
2022-11-28T14:33:42.624Z,15.73
2022-11-28T14:36:23.014Z,16.83
2022-11-28T14:39:08.425Z,14.10
2022-11-28T14:42:04.755Z,15.00
2022-11-28T14:44:50.958Z,14.07
2022-11-28T14:47:35.103Z,15.40
2022-11-28T14:50:05.897Z,15.03
2022-11-28T14:52:39.882Z,15.13
2022-11-28T14:55:10.285Z,13.23
2022-11-28T14:58:03.690Z,14.13
2022-11-28T15:01:02.454Z,15.50
2022-11-28T15:03:57.918Z,13.73
2022-11-28T15:06:38.391Z,14.90
2022-11-28T15:09:13.517Z,13.90
2022-11-28T15:11:46.012Z,13.63
2022-11-28T15:14:23.699Z,13.93
2022-11-28T15:16:58.182Z,16.67
2022-11-28T15:19:38.440Z,14.23
2022-11-28T15:22:05.422Z,14.17
2022-11-28T15:24:38.803Z,16.20
2022-11-28T15:27:08.550Z,16.77
2022-11-28T15:29:36.512Z,18.00
2022-11-28T15:32:04.633Z,14.40
2022-11-28T15:34:36.117Z,15.83
2022-11-28T15:37:15.107Z,16.30
2022-11-28T15:39:45.629Z,20.63
2022-11-28T15:42:23.998Z,17.57
2022-11-28T15:45:03.813Z,16.83
2022-11-28T15:47:30.968Z,15.80
2022-11-28T15:50:19.507Z,18.20
2022-11-28T15:53:04.670Z,16.00
2022-11-28T15:55:34.838Z,20.53
2022-11-28T15:58:28.703Z,21.37
2022-11-28T16:01:08.329Z,18.37
2022-11-28T16:03:43.469Z,21.50
2022-11-28T16:06:10.736Z,14.73
2022-11-28T16:08:41.371Z,16.00
2022-11-28T16:11:10.493Z,15.33
2022-11-28T16:13:40.714Z,17.17
2022-11-28T16:16:16.158Z,19.00
2022-11-28T16:19:00.719Z,16.60
2022-11-28T16:21:37.601Z,16.90
2022-11-28T16:24:27.755Z,17.83
2022-11-28T16:27:00.482Z,17.23
2022-11-28T16:29:34.679Z,17.07
2022-11-28T16:32:23.087Z,18.63
2022-11-28T16:34:55.276Z,15.53
2022-11-28T16:37:28.178Z,17.63
2022-11-28T16:40:01.216Z,16.93
2022-11-28T16:42:28.592Z,17.53
2022-11-28T16:44:55.704Z,20.70
2022-11-28T16:47:29.601Z,18.47
2022-11-28T16:50:04.994Z,18.80
2022-11-28T16:52:32.257Z,17.80
2022-11-28T16:54:59.477Z,16.83
2022-11-28T16:57:45.853Z,20.23
2022-11-28T17:00:13.365Z,18.27
2022-11-28T17:02:40.396Z,21.07
2022-11-28T17:05:07.627Z,20.00
2022-11-28T17:07:34.748Z,19.80
2022-11-28T17:10:01.796Z,17.73
2022-11-28T17:12:38.931Z,17.23
2022-11-28T17:15:10.530Z,19.50
2022-11-28T17:17:37.434Z,20.27
2022-11-28T17:20:04.826Z,18.73
2022-11-28T17:22:46.017Z,18.40
2022-11-28T17:25:18.138Z,17.70
2022-11-28T17:27:46.065Z,19.30
2022-11-28T17:30:18.242Z,22.03
2022-11-28T17:32:47.260Z,16.77
2022-11-28T17:35:21.528Z,17.60
2022-11-28T17:37:48.616Z,17.47
2022-11-28T17:40:33.761Z,19.97
2022-11-28T17:43:01.633Z,21.13
2022-11-28T17:45:31.915Z,16.73
2022-11-28T17:47:58.927Z,18.23
2022-11-28T17:50:26.718Z,21.90
2022-11-28T17:52:54.433Z,23.30
2022-11-28T17:55:21.366Z,19.60
2022-11-28T17:57:49.097Z,19.13
2022-11-28T18:00:17.138Z,20.43
2022-11-28T18:02:43.967Z,18.00
2022-11-28T18:05:10.936Z,20.43
2022-11-28T18:07:37.810Z,22.60
2022-11-28T18:10:05.466Z,22.00
2022-11-28T18:12:32.565Z,21.27
2022-11-28T18:15:00.979Z,21.87
2022-11-28T18:17:28.166Z,21.67
2022-11-28T18:19:57.703Z,19.80
2022-11-28T18:22:25.077Z,20.23
2022-11-28T18:24:52.056Z,22.30
2022-11-28T18:27:19.015Z,21.70
2022-11-28T18:29:46.324Z,20.53
2022-11-28T18:32:13.786Z,22.03
2022-11-28T18:34:40.817Z,23.90
2022-11-28T18:37:08.424Z,22.23
2022-11-28T18:39:35.437Z,22.87
2022-11-28T18:42:02.348Z,22.00
2022-11-28T18:44:29.236Z,24.33
2022-11-28T18:46:56.203Z,23.73
2022-11-28T18:49:23.343Z,26.03
2022-11-28T18:51:50.716Z,25.47
2022-11-28T18:54:21.078Z,27.03
2022-11-28T18:56:49.687Z,22.60
2022-11-28T18:59:16.767Z,26.00
2022-11-28T19:01:45.028Z,23.33
2022-11-28T19:04:15.526Z,28.47
2022-11-28T19:06:44.732Z,23.90
2022-11-28T19:09:14.748Z,27.97
2022-11-28T19:11:42.461Z,27.77
2022-11-28T19:14:18.431Z,30.63
2022-11-28T19:16:47.048Z,24.03
2022-11-28T19:19:14.506Z,30.70
2022-11-28T19:21:41.728Z,25.50
2022-11-28T19:24:09.072Z,26.20
2022-11-28T19:26:37.427Z,25.87
2022-11-28T19:29:05.845Z,30.43
2022-11-28T19:31:34.885Z,28.80
2022-11-28T19:34:11.507Z,26.87
2022-11-28T19:36:41.674Z,28.00
2022-11-28T19:39:14.780Z,27.57
2022-11-28T19:41:41.840Z,23.70
2022-11-28T19:44:11.386Z,24.70
2022-11-28T19:46:38.877Z,25.77
2022-11-28T19:49:07.141Z,25.07
2022-11-28T19:51:35.377Z,23.07
2022-11-28T19:54:03.904Z,27.40
2022-11-28T19:56:31.588Z,23.10
2022-11-28T19:58:59.227Z,23.23
2022-11-28T20:01:26.233Z,23.33
2022-11-28T20:03:53.527Z,22.30
2022-11-28T20:06:22.597Z,21.27
2022-11-28T20:08:50.754Z,22.57
2022-11-28T20:11:22.143Z,21.30
2022-11-28T20:13:50.207Z,23.67
2022-11-28T20:16:17.898Z,19.23
2022-11-28T20:18:45.404Z,21.97
2022-11-28T20:21:15.144Z,20.53
2022-11-28T20:23:44.337Z,25.53
2022-11-28T20:26:12.237Z,22.47
2022-11-28T20:28:40.584Z,22.50
2022-11-28T20:31:26.520Z,21.00
2022-11-28T20:33:54.620Z,23.27
2022-11-28T20:36:26.200Z,20.17
2022-11-28T20:38:54.064Z,23.60
2022-11-28T20:41:23.376Z,21.33
2022-11-28T20:43:50.584Z,25.20
2022-11-28T20:46:28.593Z,22.73
2022-11-28T20:48:58.022Z,24.20
2022-11-28T20:51:27.164Z,21.60
2022-11-28T20:53:56.151Z,25.07
2022-11-28T20:56:25.819Z,25.47
2022-11-28T20:58:52.907Z,33.17
2022-11-28T21:01:25.625Z,27.53
2022-11-28T21:03:52.858Z,27.27
2022-11-28T21:06:20.330Z,27.03
2022-11-28T21:08:47.528Z,26.33
2022-11-28T21:11:36.364Z,26.63
2022-11-28T21:14:05.679Z,33.17
2022-11-28T21:16:33.862Z,30.37
2022-11-28T21:19:09.042Z,30.43
2022-11-28T21:21:38.516Z,25.90
2022-11-28T21:24:09.721Z,30.67
2022-11-28T21:26:40.978Z,27.93
2022-11-28T21:29:10.831Z,35.73
2022-11-28T21:31:42.279Z,37.57
2022-11-28T21:34:14.382Z,32.73
2022-11-28T21:36:42.056Z,32.80
2022-11-28T21:39:16.055Z,29.90
2022-11-28T21:41:42.930Z,33.43
2022-11-28T21:44:10.085Z,38.13
2022-11-28T21:46:36.850Z,34.50
2022-11-28T21:49:03.987Z,37.63
2022-11-28T21:51:30.771Z,35.77
2022-11-28T21:53:58.008Z,31.27
2022-11-28T21:56:25.821Z,33.17
2022-11-28T21:58:52.993Z,34.00
2022-11-28T22:01:21.353Z,33.60
2022-11-28T22:03:49.223Z,36.13
2022-11-28T22:06:26.536Z,33.43
2022-11-28T22:08:54.254Z,31.00
2022-11-28T22:11:21.720Z,32.80
2022-11-28T22:13:49.383Z,31.57
2022-11-28T22:16:24.648Z,34.97
2022-11-28T22:18:54.172Z,34.67
2022-11-28T22:21:50.491Z,37.10
2022-11-28T22:24:08.643Z,38.50
2022-11-28T22:26:35.707Z,30.53
2022-11-28T22:29:04.001Z,35.13
2022-11-28T22:31:31.350Z,34.53
2022-11-28T22:33:58.350Z,37.77
2022-11-28T22:36:25.305Z,37.27
2022-11-28T22:38:56.734Z,36.63
2022-11-28T22:41:28.782Z,38.30
2022-11-28T22:43:59.505Z,36.47
2022-11-28T22:46:27.200Z,38.70
2022-11-28T22:48:54.082Z,39.87
2022-11-28T22:51:24.222Z,35.07
2022-11-28T22:53:55.770Z,44.07
2022-11-28T22:56:23.253Z,38.17
2022-11-28T22:58:50.593Z,41.03
2022-11-28T23:01:20.590Z,44.83
2022-11-28T23:03:47.993Z,43.80
2022-11-28T23:06:20.445Z,40.53
2022-11-28T23:08:47.629Z,40.10
2022-11-28T23:11:20.539Z,45.13
2022-11-28T23:13:48.318Z,45.73
2022-11-28T23:16:19.482Z,42.53
2022-11-28T23:18:49.330Z,39.27
2022-11-28T23:21:17.418Z,46.83
2022-11-28T23:23:45.936Z,42.03
2022-11-28T23:26:16.014Z,47.40
2022-11-28T23:28:43.696Z,45.77
2022-11-28T23:31:17.324Z,44.97
2022-11-28T23:33:44.668Z,58.53
2022-11-28T23:36:25.413Z,45.97
2022-11-28T23:38:59.007Z,46.17
2022-11-28T23:41:26.094Z,47.60
2022-11-28T23:43:53.152Z,59.67
2022-11-28T23:46:21.408Z,62.83
2022-11-28T23:48:48.989Z,69.73
2022-11-28T23:51:17.232Z,74.70
2022-11-28T23:53:45.053Z,76.27
2022-11-28T23:56:18.151Z,83.50
2022-11-28T23:58:45.433Z,69.03
